createdAt,value
2023-10-15T00:01:34.234Z,8.63
2023-10-15T00:04:04.335Z,8.62
2023-10-15T00:06:33.559Z,8.62
2023-10-15T00:09:02.674Z,8.68
2023-10-15T00:11:31.970Z,8.68
2023-10-15T00:14:00.779Z,8.60
2023-10-15T00:16:30.099Z,8.55
2023-10-15T00:19:00.550Z,8.60
2023-10-15T00:21:29.827Z,8.57
2023-10-15T00:23:58.691Z,8.55
2023-10-15T00:26:28.169Z,8.47
2023-10-15T00:28:57.713Z,8.44
2023-10-15T00:31:27.445Z,8.37
2023-10-15T00:33:56.538Z,8.37
2023-10-15T00:36:28.745Z,8.44
2023-10-15T00:38:57.886Z,8.46
2023-10-15T00:41:27.079Z,8.50
2023-10-15T00:43:57.337Z,8.45
2023-10-15T00:46:29.187Z,8.41
2023-10-15T00:48:58.656Z,8.41
2023-10-15T00:51:29.177Z,8.38
2023-10-15T00:54:00.384Z,8.38
2023-10-15T00:56:34.761Z,8.33
2023-10-15T00:59:18.321Z,8.32
2023-10-15T01:02:04.558Z,8.29
2023-10-15T01:04:36.927Z,8.23
2023-10-15T01:07:22.770Z,8.16
2023-10-15T01:09:51.730Z,8.15
2023-10-15T01:12:26.078Z,8.17
2023-10-15T01:14:55.103Z,8.27
2023-10-15T01:17:25.916Z,8.26
2023-10-15T01:19:55.045Z,8.30
2023-10-15T01:22:26.401Z,8.19
2023-10-15T01:24:56.741Z,8.23
2023-10-15T01:27:30.461Z,8.16
2023-10-15T01:30:01.451Z,8.15
2023-10-15T01:32:32.613Z,8.05
2023-10-15T01:35:03.103Z,7.97
2023-10-15T01:37:32.744Z,8.02
2023-10-15T01:40:23.218Z,8.00
2023-10-15T01:42:55.783Z,8.08
2023-10-15T01:45:33.415Z,8.05
2023-10-15T01:48:07.392Z,7.98
2023-10-15T01:50:43.367Z,8.05
2023-10-15T01:53:13.226Z,8.04
2023-10-15T01:55:55.159Z,7.93
2023-10-15T01:58:32.369Z,7.97
2023-10-15T02:01:15.174Z,8.02
2023-10-15T02:03:44.754Z,7.99
2023-10-15T02:06:17.917Z,8.03
2023-10-15T02:08:52.592Z,8.08
2023-10-15T02:11:23.789Z,7.99
2023-10-15T02:13:56.575Z,7.99
2023-10-15T02:16:31.622Z,7.89
2023-10-15T02:19:01.606Z,7.89
2023-10-15T02:21:36.165Z,7.93
2023-10-15T02:24:10.098Z,7.99
2023-10-15T02:26:41.029Z,7.95
2023-10-15T02:29:28.952Z,7.82
2023-10-15T02:32:00.227Z,7.74
2023-10-15T02:34:30.394Z,7.81
2023-10-15T02:37:04.627Z,7.59
2023-10-15T02:39:39.264Z,7.74
2023-10-15T02:42:09.600Z,7.72
2023-10-15T02:44:39.754Z,7.85
2023-10-15T02:47:11.959Z,7.77
2023-10-15T02:49:54.149Z,7.81
2023-10-15T02:52:24.874Z,7.86
2023-10-15T02:54:54.157Z,7.81
2023-10-15T02:57:24.434Z,7.86
2023-10-15T02:59:54.215Z,7.79
2023-10-15T03:02:26.577Z,7.82
2023-10-15T03:04:56.721Z,7.79
2023-10-15T03:07:31.588Z,7.72
2023-10-15T03:10:04.643Z,7.72
2023-10-15T03:12:35.644Z,7.71
2023-10-15T03:15:08.485Z,7.78
2023-10-15T03:17:42.108Z,7.85
2023-10-15T03:20:25.579Z,7.78
2023-10-15T03:22:59.863Z,7.77
2023-10-15T03:25:35.582Z,7.76
2023-10-15T03:28:08.580Z,7.72
2023-10-15T03:30:45.639Z,7.77
2023-10-15T03:33:16.049Z,7.76
2023-10-15T03:35:47.733Z,7.76
2023-10-15T03:38:24.431Z,7.63
2023-10-15T03:41:07.511Z,7.75
2023-10-15T03:43:37.780Z,7.78
2023-10-15T03:46:18.565Z,7.82
2023-10-15T03:48:51.367Z,7.72
2023-10-15T03:51:22.570Z,7.71
2023-10-15T03:53:51.872Z,7.69
2023-10-15T03:56:28.393Z,7.67
2023-10-15T03:58:58.730Z,7.61
2023-10-15T04:01:29.298Z,7.68
2023-10-15T04:04:02.376Z,7.71
2023-10-15T04:06:31.910Z,7.74
2023-10-15T04:09:11.103Z,7.64
2023-10-15T04:11:44.271Z,7.64
2023-10-15T04:14:24.324Z,7.66
2023-10-15T04:16:54.289Z,7.79
2023-10-15T04:19:27.188Z,7.69
2023-10-15T04:22:01.256Z,7.68
2023-10-15T04:24:37.656Z,7.61
2023-10-15T04:27:16.082Z,7.68
2023-10-15T04:29:51.159Z,7.74
2023-10-15T04:32:30.624Z,7.72
2023-10-15T04:35:02.944Z,7.76
2023-10-15T04:37:36.785Z,7.79
2023-10-15T04:40:18.390Z,7.73
2023-10-15T04:42:50.413Z,7.70
2023-10-15T04:45:24.972Z,7.74
2023-10-15T04:47:55.901Z,7.74
2023-10-15T04:50:29.660Z,7.67
2023-10-15T04:53:14.309Z,7.66
2023-10-15T04:55:44.205Z,7.63
2023-10-15T04:58:13.724Z,7.67
2023-10-15T05:00:45.261Z,7.76
2023-10-15T05:03:15.390Z,7.62
2023-10-15T05:05:46.983Z,7.61
2023-10-15T05:08:18.598Z,7.57
2023-10-15T05:10:51.974Z,7.57
2023-10-15T05:13:21.931Z,7.64
2023-10-15T05:15:52.589Z,7.59
2023-10-15T05:18:21.901Z,7.70
2023-10-15T05:20:51.696Z,7.68
2023-10-15T05:23:21.537Z,7.67
2023-10-15T05:25:51.295Z,7.63
2023-10-15T05:28:21.171Z,7.69
2023-10-15T05:30:50.613Z,7.63
2023-10-15T05:33:21.866Z,7.65
2023-10-15T05:35:50.809Z,7.62
2023-10-15T05:38:19.980Z,7.60
2023-10-15T05:40:48.931Z,7.74
2023-10-15T05:43:18.374Z,7.70
2023-10-15T05:45:47.627Z,7.70
2023-10-15T05:48:18.957Z,7.69
2023-10-15T05:50:50.344Z,7.72
2023-10-15T05:53:19.873Z,7.77
2023-10-15T05:55:48.826Z,7.81
2023-10-15T05:58:18.023Z,7.78
2023-10-15T06:00:46.946Z,7.90
2023-10-15T06:03:16.209Z,7.87
2023-10-15T06:05:45.367Z,7.79
2023-10-15T06:08:16.229Z,7.68
2023-10-15T06:10:45.184Z,7.82
2023-10-15T06:13:14.396Z,7.87
2023-10-15T06:15:43.598Z,8.05
2023-10-15T06:18:12.893Z,8.04
2023-10-15T06:20:41.990Z,8.19
2023-10-15T06:23:11.286Z,8.07
2023-10-15T06:25:41.689Z,8.14
2023-10-15T06:28:15.474Z,8.18
2023-10-15T06:30:44.728Z,8.28
2023-10-15T06:33:14.841Z,8.41
2023-10-15T06:35:44.354Z,8.52
2023-10-15T06:38:13.606Z,8.53
2023-10-15T06:40:43.991Z,8.51
2023-10-15T06:43:13.883Z,8.63
2023-10-15T06:45:42.732Z,8.67
2023-10-15T06:48:12.029Z,8.73
2023-10-15T06:50:42.497Z,8.69
2023-10-15T06:53:11.783Z,8.78
2023-10-15T06:55:40.691Z,8.83
2023-10-15T06:58:11.674Z,8.87
2023-10-15T07:00:40.679Z,8.98
2023-10-15T07:03:10.089Z,8.96
2023-10-15T07:05:39.817Z,9.06
2023-10-15T07:08:09.340Z,9.05
2023-10-15T07:10:39.327Z,9.09
2023-10-15T07:13:08.611Z,9.12
2023-10-15T07:15:39.577Z,9.11
2023-10-15T07:18:10.377Z,9.16
2023-10-15T07:20:39.673Z,9.21
2023-10-15T07:23:08.860Z,9.26
2023-10-15T07:25:38.128Z,9.39
2023-10-15T07:28:07.547Z,9.31
2023-10-15T07:30:36.467Z,9.36
2023-10-15T07:33:07.241Z,9.43
2023-10-15T07:35:36.415Z,9.48
2023-10-15T07:38:05.946Z,9.49
2023-10-15T07:40:35.236Z,9.55
2023-10-15T07:43:04.818Z,9.53
2023-10-15T07:45:34.745Z,9.73
2023-10-15T07:48:05.445Z,9.76
2023-10-15T07:50:36.685Z,9.78
2023-10-15T07:53:07.403Z,9.99
2023-10-15T07:55:36.493Z,9.91
2023-10-15T07:58:05.747Z,9.88
2023-10-15T08:00:35.649Z,9.97
2023-10-15T08:03:09.723Z,9.94
2023-10-15T08:05:41.008Z,9.99
2023-10-15T08:08:10.731Z,9.89
2023-10-15T08:10:39.968Z,9.98
2023-10-15T08:13:09.752Z,9.98
2023-10-15T08:15:39.928Z,9.92
2023-10-15T08:18:09.943Z,9.79
2023-10-15T08:20:40.321Z,9.89
2023-10-15T08:23:11.951Z,9.76
2023-10-15T08:25:40.972Z,9.76
2023-10-15T08:28:11.736Z,9.78
2023-10-15T08:30:42.801Z,9.79
2023-10-15T08:33:13.679Z,9.73
2023-10-15T08:35:44.013Z,9.81
2023-10-15T08:38:14.112Z,9.90
2023-10-15T08:40:46.501Z,10.03
2023-10-15T08:43:21.513Z,10.11
2023-10-15T08:45:50.994Z,10.23
2023-10-15T08:48:20.568Z,10.32
2023-10-15T08:50:50.958Z,10.34
2023-10-15T08:53:20.480Z,10.33
2023-10-15T08:55:50.442Z,10.29
2023-10-15T08:58:22.457Z,10.44
2023-10-15T09:00:52.535Z,10.41
2023-10-15T09:03:24.533Z,10.32
2023-10-15T09:05:55.055Z,10.20
2023-10-15T09:08:24.829Z,10.10
2023-10-15T09:10:54.894Z,10.15
2023-10-15T09:13:27.273Z,10.13
2023-10-15T09:15:56.962Z,9.96
2023-10-15T09:18:27.168Z,9.77
2023-10-15T09:20:59.913Z,9.76
2023-10-15T09:23:32.539Z,9.88
2023-10-15T09:26:02.976Z,9.99
2023-10-15T09:28:32.610Z,10.15
2023-10-15T09:31:05.530Z,10.27
2023-10-15T09:33:37.427Z,10.37
2023-10-15T09:36:08.607Z,10.50
2023-10-15T09:38:38.369Z,10.50
2023-10-15T09:41:08.055Z,10.37
2023-10-15T09:43:38.796Z,10.25
2023-10-15T09:46:08.954Z,10.45
2023-10-15T09:48:39.488Z,10.40
2023-10-15T09:51:12.270Z,10.40
2023-10-15T09:53:43.449Z,10.45
2023-10-15T09:56:14.558Z,10.43
2023-10-15T09:58:45.524Z,10.50
2023-10-15T10:01:27.215Z,10.74
2023-10-15T10:04:25.865Z,10.87
2023-10-15T10:07:04.824Z,10.78
2023-10-15T10:09:48.869Z,10.74
2023-10-15T10:12:26.377Z,10.78
2023-10-15T10:15:07.202Z,10.71
2023-10-15T10:17:37.380Z,10.59
2023-10-15T10:20:12.354Z,10.55
2023-10-15T10:22:45.715Z,10.62
2023-10-15T10:25:30.246Z,10.71
2023-10-15T10:28:16.130Z,10.74
2023-10-15T10:30:57.020Z,10.71
2023-10-15T10:33:45.036Z,10.69
2023-10-15T10:36:15.159Z,10.41
2023-10-15T10:38:48.039Z,10.52
2023-10-15T10:43:54.132Z,10.42
2023-10-15T10:46:31.282Z,10.68
2023-10-15T10:49:06.985Z,10.68
2023-10-15T10:51:36.268Z,10.74
2023-10-15T10:54:23.962Z,10.80
2023-10-15T10:56:59.644Z,10.94
2023-10-15T10:59:30.618Z,10.86
2023-10-15T11:02:01.557Z,11.07
2023-10-15T11:04:30.547Z,11.20
2023-10-15T11:06:59.773Z,11.23
2023-10-15T11:09:30.012Z,11.34
2023-10-15T11:12:00.640Z,11.39
2023-10-15T11:14:29.872Z,11.40
2023-10-15T11:16:59.203Z,11.42
2023-10-15T11:19:30.205Z,11.49
2023-10-15T11:21:59.704Z,11.52
2023-10-15T11:24:29.144Z,11.72
2023-10-15T11:26:59.584Z,11.65
2023-10-15T11:29:32.858Z,11.68
2023-10-15T11:32:02.773Z,11.60
2023-10-15T11:34:33.127Z,11.60
2023-10-15T11:37:03.071Z,11.87
2023-10-15T11:39:39.369Z,11.92
2023-10-15T11:42:09.988Z,11.96
2023-10-15T11:44:43.663Z,12.04
2023-10-15T11:47:18.003Z,12.11
2023-10-15T11:49:47.918Z,12.08
2023-10-15T11:52:20.685Z,12.18
2023-10-15T11:54:52.398Z,12.08
2023-10-15T11:57:22.813Z,12.07
2023-10-15T11:59:56.319Z,12.24
2023-10-15T12:02:28.396Z,12.20
2023-10-15T12:05:02.401Z,12.21
2023-10-15T12:07:32.366Z,12.23
2023-10-15T12:10:01.446Z,12.19
2023-10-15T12:12:30.928Z,12.23
2023-10-15T12:15:01.339Z,12.28
2023-10-15T12:17:30.867Z,12.21
2023-10-15T12:22:33.538Z,12.33
2023-10-15T12:25:03.063Z,12.28
2023-10-15T12:27:32.388Z,12.28
2023-10-15T12:30:05.448Z,12.37
2023-10-15T12:32:43.200Z,12.38
2023-10-15T12:35:14.424Z,12.45
2023-10-15T12:37:44.199Z,12.13
2023-10-15T12:40:14.277Z,12.13
2023-10-15T12:42:43.872Z,12.05
2023-10-15T12:45:15.055Z,12.00
2023-10-15T12:47:44.645Z,11.97
2023-10-15T12:50:16.685Z,11.96
2023-10-15T12:52:48.073Z,12.02
2023-10-15T12:55:19.892Z,11.99
2023-10-15T12:57:49.878Z,11.98
2023-10-15T13:00:22.772Z,11.80
2023-10-15T13:02:53.148Z,11.72
2023-10-15T13:05:23.849Z,11.98
2023-10-15T13:07:54.214Z,11.91
2023-10-15T13:10:23.438Z,11.88
2023-10-15T13:12:54.002Z,11.43
2023-10-15T13:15:24.733Z,11.08
2023-10-15T13:17:56.133Z,10.59
2023-10-15T13:20:25.696Z,10.18
2023-10-15T13:22:55.911Z,9.80
2023-10-15T13:25:24.918Z,9.72
2023-10-15T13:27:54.214Z,9.46
2023-10-15T13:30:26.037Z,9.37
2023-10-15T13:32:55.321Z,9.27
2023-10-15T13:35:25.298Z,9.10
2023-10-15T13:37:56.067Z,8.88
2023-10-15T13:40:25.079Z,8.85
2023-10-15T13:42:54.331Z,8.85
2023-10-15T13:45:24.800Z,8.81
2023-10-15T13:47:54.165Z,8.51
2023-10-15T13:50:23.112Z,8.47
2023-10-15T13:52:53.881Z,8.48
2023-10-15T13:55:22.980Z,8.43
2023-10-15T13:57:54.017Z,8.41
2023-10-15T14:00:28.908Z,8.35
2023-10-15T14:02:58.492Z,8.28
2023-10-15T14:05:29.063Z,8.28
2023-10-15T14:07:58.894Z,8.22
2023-10-15T14:10:27.995Z,8.24
2023-10-15T14:13:09.391Z,8.13
2023-10-15T14:15:48.390Z,8.08
2023-10-15T14:18:19.255Z,8.07
2023-10-15T14:20:48.317Z,8.07
2023-10-15T14:23:17.590Z,7.96
2023-10-15T14:25:48.939Z,8.00
2023-10-15T14:28:19.982Z,8.01
2023-10-15T14:30:51.659Z,7.79
2023-10-15T14:33:21.084Z,7.86
2023-10-15T14:35:50.297Z,7.72
2023-10-15T14:38:20.299Z,7.74
2023-10-15T14:40:49.372Z,7.72
2023-10-15T14:43:18.666Z,7.58
2023-10-15T14:45:47.670Z,7.48
2023-10-15T14:48:19.448Z,7.51
2023-10-15T14:50:48.498Z,7.37
2023-10-15T14:53:17.780Z,7.34
2023-10-15T14:55:49.210Z,7.33
2023-10-15T14:58:19.164Z,7.09
2023-10-15T15:00:48.906Z,7.23
2023-10-15T15:03:23.328Z,7.14
2023-10-15T15:05:52.551Z,7.05
2023-10-15T15:08:21.838Z,7.14
2023-10-15T15:10:50.941Z,7.09
2023-10-15T15:13:20.232Z,7.01
2023-10-15T15:15:49.184Z,7.08
2023-10-15T15:18:20.285Z,7.02
2023-10-15T15:20:59.321Z,6.97
2023-10-15T15:23:28.764Z,6.97
2023-10-15T15:26:01.627Z,6.82
2023-10-15T15:28:31.526Z,6.96
2023-10-15T15:31:00.540Z,6.79
2023-10-15T15:33:31.175Z,6.85
2023-10-15T15:36:00.465Z,6.80
2023-10-15T15:38:29.677Z,6.78
2023-10-15T15:41:05.303Z,6.77
2023-10-15T15:43:36.876Z,6.82
2023-10-15T15:46:10.663Z,6.72
2023-10-15T15:48:41.436Z,6.56
2023-10-15T15:51:12.954Z,6.70
2023-10-15T15:53:42.504Z,6.58
2023-10-15T15:56:11.537Z,6.52
2023-10-15T15:58:40.900Z,6.62
2023-10-15T16:01:10.028Z,6.57
2023-10-15T16:03:50.767Z,6.48
2023-10-15T16:06:22.063Z,6.60
2023-10-15T16:08:51.406Z,6.40
2023-10-15T16:11:20.331Z,6.53
2023-10-15T16:13:50.871Z,6.60
2023-10-15T16:16:19.891Z,6.65
2023-10-15T16:18:49.207Z,6.59
2023-10-15T16:21:18.160Z,6.59
2023-10-15T16:23:48.879Z,6.64
2023-10-15T16:26:17.826Z,6.58
2023-10-15T16:28:47.127Z,6.57
2023-10-15T16:31:16.237Z,6.68
2023-10-15T16:33:45.606Z,6.77
2023-10-15T16:36:14.562Z,6.66
2023-10-15T16:38:43.768Z,6.73
2023-10-15T16:41:15.122Z,6.68
2023-10-15T16:43:44.715Z,6.65
2023-10-15T16:46:13.609Z,6.82
2023-10-15T16:48:43.072Z,6.95
2023-10-15T16:51:22.622Z,6.96
2023-10-15T16:53:54.245Z,6.79
2023-10-15T16:56:24.876Z,6.83
2023-10-15T16:58:54.694Z,6.87
2023-10-15T17:01:23.775Z,6.72
2023-10-15T17:03:53.192Z,6.77
2023-10-15T17:06:22.129Z,6.76
2023-10-15T17:08:51.335Z,6.79
2023-10-15T17:11:20.321Z,6.76
2023-10-15T17:13:52.821Z,6.83
2023-10-15T17:16:22.051Z,6.77
2023-10-15T17:18:51.508Z,6.78
2023-10-15T17:21:20.441Z,6.75
2023-10-15T17:23:49.697Z,6.67
2023-10-15T17:26:18.961Z,6.71
2023-10-15T17:28:48.348Z,6.75
2023-10-15T17:31:18.637Z,6.72
2023-10-15T17:33:48.647Z,6.73
2023-10-15T17:36:17.575Z,6.74
2023-10-15T17:38:47.010Z,6.72
2023-10-15T17:41:16.023Z,6.83
2023-10-15T17:43:45.478Z,6.90
2023-10-15T17:46:14.589Z,6.86
2023-10-15T17:48:45.479Z,6.90
2023-10-15T17:51:16.227Z,6.92
2023-10-15T17:53:45.631Z,6.78
2023-10-15T17:56:14.916Z,6.80
2023-10-15T17:58:44.287Z,6.89
2023-10-15T18:01:14.471Z,6.89
2023-10-15T18:03:46.138Z,6.94
2023-10-15T18:06:16.538Z,6.90
2023-10-15T18:08:47.415Z,6.89
2023-10-15T18:11:16.721Z,6.81
2023-10-15T18:13:46.006Z,6.81
2023-10-15T18:16:15.965Z,6.89
2023-10-15T18:18:49.058Z,6.88
2023-10-15T18:21:18.211Z,6.91
2023-10-15T18:23:47.466Z,6.92
2023-10-15T18:26:18.081Z,6.87
2023-10-15T18:28:47.526Z,6.85
2023-10-15T18:31:16.385Z,6.91
2023-10-15T18:33:47.185Z,7.00
2023-10-15T18:36:17.375Z,6.93
2023-10-15T18:38:47.084Z,6.90
2023-10-15T18:41:17.587Z,6.90
2023-10-15T18:43:47.086Z,6.98
2023-10-15T18:46:16.007Z,6.88
2023-10-15T18:48:45.333Z,6.97
2023-10-15T18:51:36.583Z,6.90
2023-10-15T18:54:05.525Z,6.89
2023-10-15T18:56:34.625Z,6.89
2023-10-15T18:59:04.222Z,7.03
2023-10-15T19:01:33.981Z,7.05
2023-10-15T19:04:03.488Z,6.95
2023-10-15T19:06:34.643Z,7.04
2023-10-15T19:09:05.562Z,6.95
2023-10-15T19:11:35.776Z,7.02
2023-10-15T19:14:05.114Z,6.88
2023-10-15T19:16:36.114Z,6.99
2023-10-15T19:19:12.526Z,6.97
2023-10-15T19:21:46.863Z,6.95
2023-10-15T19:24:16.599Z,6.98
2023-10-15T19:26:45.880Z,6.89
2023-10-15T19:29:15.921Z,6.94
2023-10-15T19:31:47.009Z,6.85
2023-10-15T19:34:16.741Z,6.93
2023-10-15T19:36:48.088Z,7.01
2023-10-15T19:39:19.087Z,6.97
2023-10-15T19:41:48.057Z,6.96
2023-10-15T19:44:17.221Z,6.96
2023-10-15T19:46:46.247Z,6.95
2023-10-15T19:49:15.472Z,6.93
2023-10-15T19:51:44.584Z,6.98
2023-10-15T19:54:17.407Z,6.99
2023-10-15T19:56:46.431Z,6.92
2023-10-15T19:59:15.631Z,6.97
2023-10-15T20:01:44.895Z,7.00
2023-10-15T20:04:14.261Z,6.88
2023-10-15T20:06:43.320Z,6.88
2023-10-15T20:09:12.672Z,6.84
2023-10-15T20:11:42.947Z,6.80
2023-10-15T20:14:12.346Z,6.83
2023-10-15T20:16:41.579Z,6.88
2023-10-15T20:19:11.565Z,6.92
2023-10-15T20:21:40.613Z,6.91
2023-10-15T20:24:10.529Z,6.79
2023-10-15T20:26:39.521Z,6.75
2023-10-15T20:29:11.658Z,6.79
2023-10-15T20:31:40.737Z,6.88
2023-10-15T20:34:11.832Z,6.82
2023-10-15T20:36:41.543Z,6.86
2023-10-15T20:39:11.251Z,6.89
2023-10-15T20:41:40.467Z,6.72
2023-10-15T20:44:11.042Z,6.71
2023-10-15T20:46:40.126Z,6.69
2023-10-15T20:49:12.181Z,6.70
2023-10-15T20:51:42.750Z,6.63
2023-10-15T20:54:12.406Z,6.69
2023-10-15T20:56:41.336Z,6.67
2023-10-15T20:59:12.664Z,6.65
2023-10-15T21:04:10.795Z,6.68
2023-10-15T21:06:39.747Z,6.70
2023-10-15T21:09:09.008Z,6.72
2023-10-15T21:11:37.961Z,6.71
2023-10-15T21:14:07.278Z,6.73
2023-10-15T21:16:37.826Z,6.71
2023-10-15T21:19:09.380Z,6.74
2023-10-15T21:21:40.340Z,6.78
2023-10-15T21:24:10.714Z,6.91
2023-10-15T21:26:40.321Z,6.92
2023-10-15T21:29:09.628Z,6.97
2023-10-15T21:31:39.871Z,6.96
2023-10-15T21:34:09.850Z,6.90
2023-10-15T21:36:38.925Z,6.81
2023-10-15T21:39:09.215Z,6.85
2023-10-15T21:41:38.207Z,6.76
2023-10-15T21:44:07.589Z,6.89
2023-10-15T21:46:36.609Z,6.88
2023-10-15T21:49:07.195Z,6.88
2023-10-15T21:51:36.682Z,6.86
2023-10-15T21:54:06.188Z,6.88
2023-10-15T21:56:35.936Z,6.85
2023-10-15T21:59:05.125Z,6.68
2023-10-15T22:01:34.293Z,6.81
2023-10-15T22:04:04.133Z,6.79
2023-10-15T22:06:34.519Z,6.89
2023-10-15T22:09:04.337Z,6.96
2023-10-15T22:11:33.209Z,7.01
2023-10-15T22:14:02.996Z,7.03
2023-10-15T22:16:32.383Z,7.03
2023-10-15T22:19:02.048Z,7.01
2023-10-15T22:21:31.192Z,7.01
2023-10-15T22:24:07.033Z,6.92
2023-10-15T22:26:37.596Z,7.02
2023-10-15T22:29:08.763Z,7.02
2023-10-15T22:31:37.810Z,7.06
2023-10-15T22:34:07.015Z,7.00
2023-10-15T22:36:35.933Z,7.04
2023-10-15T22:39:06.980Z,7.10
2023-10-15T22:41:35.898Z,7.13
2023-10-15T22:44:06.508Z,7.10
2023-10-15T22:46:36.121Z,7.21
2023-10-15T22:49:06.516Z,7.21
2023-10-15T22:51:35.529Z,7.23
2023-10-15T22:54:08.306Z,7.30
2023-10-15T22:56:37.377Z,7.28
2023-10-15T22:59:07.178Z,7.26
2023-10-15T23:01:36.120Z,7.22
2023-10-15T23:04:05.755Z,7.26
2023-10-15T23:06:34.947Z,7.30
2023-10-15T23:09:04.296Z,7.29
2023-10-15T23:11:35.810Z,7.24
2023-10-15T23:14:06.940Z,7.25
2023-10-15T23:16:35.937Z,7.15
2023-10-15T23:19:05.439Z,7.20
2023-10-15T23:21:47.033Z,7.22
2023-10-15T23:24:16.358Z,7.19
2023-10-15T23:26:47.070Z,7.04
2023-10-15T23:29:16.363Z,7.09
2023-10-15T23:31:45.263Z,7.13
2023-10-15T23:34:15.992Z,7.07
2023-10-15T23:36:44.991Z,7.09
2023-10-15T23:39:18.260Z,7.08
2023-10-15T23:41:50.785Z,7.03
2023-10-15T23:44:23.013Z,7.11
2023-10-15T23:47:01.987Z,7.13
2023-10-15T23:49:36.102Z,7.14
2023-10-15T23:52:06.477Z,7.13
2023-10-15T23:54:36.670Z,7.07
2023-10-15T23:57:11.154Z,7.05
2023-10-15T23:59:42.460Z,7.08
